Terminal Aerodrome Forecast
Issued by NWS Charleston, WV

Home | Current Version | Previous Version | Text Only | Print | Product List | Glossary On
Versions: 1 2 3 4 5 6 7 8 9 10 11 12 13 14 15 16 17 18 19 20 21 22 23 24 25
000
FTUS41 KRLX 290500
TAFPKB
TAF
KPKB 290522Z 2906/3006 00000KT P6SM BKN200
     FM291300 18004KT P6SM BKN200
     FM291600 19008KT P6SM BKN100
     FM291900 20012G18KT P6SM BKN060
     FM292200 20008KT P6SM BKN045=

USA.gov is the U.S. government's official web portal to all federal, state and local government web resources and services.